Route Details

Aircraft Information
Group: North America Fleet
Types: B738, B752, B762, B763
Route Data
Distance: 678nm
Duration: 2h 14m
Origin METAR: KCVG 010452Z 36009KT 10SM BKN120 M05/M09 A3029 RMK AO2 SLP267 T10501094 410281061
Dest. METAR: KLAL 010455Z AUTO 00000KT 10SM CLR 17/16 A3019 RMK AO2 T01720159 402810151
Freight Data
(for Feb 1, 2023)
Load Factor:
79%
Manifested Cargo: 70,043lbs
Financial History
Total Freight: 65,995lbs
Average Load: 0lbs/flt
Fuel Used: 35,760lbs
Avg. Fuel Used: 0lbs/flt
Fuel Expense: $20,383
Avg. Fuel Expense: $0
Avg. Fuel Cost: $0/lbs
Total Gross Income: $168,287
Pilot Pay: $239
Total Expenses: $32,697
Total Revenue: $114,317
Average Revenue: $0

Capitol Logistics 364




KCVG
Cincinnati/Northern Kentucky International Airport
Covington, Kentucky
KLAL
Lakeland Linder Regional Airport
Lakeland, Florida

Activity Log

Date Flight Route Aircraft Duration
07/13/2022 CPX364 CHCLL5 BWG DCT BNA J39 MGM DCT ACORI MAATY3 B762 2h 18m